createdAt,value
2023-03-22T00:03:59.250Z,25.00
2023-03-22T00:07:59.341Z,32.17
2023-03-22T00:11:59.567Z,33.70
2023-03-22T00:15:59.902Z,30.07
2023-03-22T00:20:00.154Z,29.95
2023-03-22T00:24:00.212Z,38.26
2023-03-22T00:28:00.431Z,32.79
2023-03-22T00:32:00.744Z,26.91
2023-03-22T00:36:00.853Z,36.97
2023-03-22T00:40:01.026Z,29.43
2023-03-22T00:44:01.247Z,29.46
2023-03-22T00:48:01.557Z,30.61
2023-03-22T00:52:01.661Z,30.68
2023-03-22T00:56:01.941Z,32.25
2023-03-22T01:00:02.121Z,29.22
2023-03-22T01:04:02.132Z,28.42
2023-03-22T01:08:05.131Z,26.72
2023-03-22T01:12:02.228Z,27.21
2023-03-22T01:16:02.064Z,35.51
2023-03-22T01:20:01.966Z,28.49
2023-03-22T01:24:02.063Z,31.19
2023-03-22T01:28:02.142Z,25.65
2023-03-22T01:32:01.831Z,38.40
2023-03-22T01:36:01.847Z,27.52
2023-03-22T01:40:01.773Z,31.42
2023-03-22T01:44:02.587Z,36.94
2023-03-22T01:48:01.904Z,31.79
2023-03-22T01:52:01.800Z,34.16
2023-03-22T01:56:01.662Z,27.55
2023-03-22T02:00:02.115Z,25.34
2023-03-22T02:04:01.700Z,32.29
2023-03-22T02:08:01.647Z,26.42
2023-03-22T02:12:01.641Z,27.82
2023-03-22T02:16:01.704Z,28.36
2023-03-22T02:20:01.467Z,30.26
2023-03-22T02:24:01.431Z,31.56
2023-03-22T02:28:01.445Z,27.47
2023-03-22T02:32:01.412Z,29.82
2023-03-22T02:36:01.334Z,26.64
2023-03-22T02:40:01.614Z,29.31
2023-03-22T02:44:01.587Z,28.20
2023-03-22T02:48:01.202Z,27.46
2023-03-22T02:52:01.167Z,28.62
2023-03-22T02:56:01.139Z,32.68
2023-03-22T03:00:01.320Z,31.57
2023-03-22T03:04:01.252Z,27.73
2023-03-22T03:08:01.171Z,28.66
2023-03-22T03:12:01.125Z,27.65
2023-03-22T03:16:01.107Z,29.54
2023-03-22T03:20:01.115Z,29.87
2023-03-22T03:24:01.060Z,25.45
2023-03-22T03:28:01.019Z,25.88
2023-03-22T03:32:01.038Z,28.18
2023-03-22T03:36:00.959Z,29.86
2023-03-22T03:40:01.088Z,27.53
2023-03-22T03:44:01.073Z,31.25
2023-03-22T03:48:01.099Z,26.43
2023-03-22T03:52:01.009Z,27.95
2023-03-22T03:56:01.030Z,32.66
2023-03-22T04:00:01.006Z,26.84
2023-03-22T04:04:01.049Z,28.89
2023-03-22T04:08:00.843Z,27.64
2023-03-22T04:12:00.813Z,32.00
2023-03-22T04:16:00.829Z,26.84
2023-03-22T04:20:00.872Z,28.44
2023-03-22T04:24:00.858Z,27.71
2023-03-22T04:28:01.114Z,26.53
2023-03-22T04:32:00.793Z,30.71
2023-03-22T04:36:02.919Z,28.33
2023-03-22T04:40:00.692Z,26.02
2023-03-22T04:44:00.632Z,27.49
2023-03-22T04:48:01.311Z,29.09
2023-03-22T04:52:00.536Z,27.97
2023-03-22T04:56:00.712Z,31.89
2023-03-22T05:00:15.176Z,34.69
2023-03-22T05:04:00.560Z,36.90
2023-03-22T05:08:00.433Z,29.17
2023-03-22T05:12:00.390Z,29.17
2023-03-22T05:16:00.456Z,30.70
2023-03-22T05:20:00.325Z,31.17
2023-03-22T05:24:00.693Z,36.23
2023-03-22T05:28:00.702Z,29.59
2023-03-22T05:32:00.692Z,27.90
2023-03-22T05:36:00.356Z,28.52
2023-03-22T05:40:00.695Z,30.12
2023-03-22T05:44:00.411Z,35.00
2023-03-22T05:48:00.637Z,44.03
2023-03-22T05:52:00.731Z,44.41
2023-03-22T05:56:00.912Z,45.89
2023-03-22T06:00:01.072Z,43.39
2023-03-22T06:04:01.286Z,48.09
2023-03-22T06:08:01.193Z,46.39
2023-03-22T06:12:01.124Z,43.89
2023-03-22T06:16:01.287Z,45.05
2023-03-22T06:20:01.240Z,48.53
2023-03-22T06:24:01.168Z,49.07
2023-03-22T06:28:01.206Z,48.10
2023-03-22T06:32:09.978Z,43.19
2023-03-22T06:36:02.648Z,46.59
2023-03-22T06:40:01.211Z,56.92
2023-03-22T06:44:01.105Z,72.59
2023-03-22T06:48:01.148Z,96.11
2023-03-22T06:52:03.178Z,54.97
2023-03-22T06:56:04.638Z,45.78
2023-03-22T07:00:06.134Z,59.23
2023-03-22T07:04:01.383Z,54.90
2023-03-22T07:08:01.010Z,44.56
2023-03-22T07:12:10.739Z,37.43
2023-03-22T07:16:01.007Z,35.19
2023-03-22T07:20:00.934Z,25.24
2023-03-22T07:24:01.089Z,39.64
2023-03-22T07:28:00.955Z,33.17
2023-03-22T07:32:01.211Z,37.05
2023-03-22T07:36:01.024Z,31.75
2023-03-22T07:40:01.367Z,30.44
2023-03-22T07:44:15.250Z,29.57
2023-03-22T07:48:02.300Z,27.07
2023-03-22T07:52:00.853Z,28.36
2023-03-22T07:56:00.824Z,30.71
2023-03-22T08:00:01.052Z,29.89
2023-03-22T08:04:00.770Z,38.28
2023-03-22T08:08:00.829Z,30.08
2023-03-22T08:12:00.681Z,26.94
2023-03-22T08:16:00.745Z,30.60
2023-03-22T08:20:00.619Z,25.00
2023-03-22T08:24:00.605Z,27.34
2023-03-22T08:28:00.654Z,33.32
2023-03-22T08:32:00.884Z,32.31
2023-03-22T08:36:01.085Z,37.74
2023-03-22T08:40:01.008Z,69.07
2023-03-22T08:44:00.887Z,67.72
2023-03-22T08:48:00.908Z,54.22
2023-03-22T08:52:00.743Z,39.20
2023-03-22T08:56:00.776Z,23.84
2023-03-22T09:00:00.687Z,34.91
2023-03-22T09:04:00.772Z,26.45
2023-03-22T09:08:06.145Z,35.99
2023-03-22T09:12:02.641Z,46.78
2023-03-22T09:16:00.608Z,25.00
2023-03-22T09:20:11.878Z,25.00
2023-03-22T09:24:01.530Z,17.64
2023-03-22T09:32:30.403Z,25.00
2023-03-22T09:36:19.146Z,25.00
2023-03-22T09:40:19.125Z,29.30
2023-03-22T09:44:22.047Z,25.11
2023-03-22T09:48:19.148Z,42.90
2023-03-22T09:52:18.981Z,58.66
2023-03-22T09:56:18.887Z,69.03
2023-03-22T10:00:19.036Z,104.92
2023-03-22T10:04:18.946Z,119.11
2023-03-22T10:08:18.868Z,128.75
2023-03-22T10:12:18.828Z,140.34
2023-03-22T10:16:18.750Z,104.25
2023-03-22T10:20:18.688Z,146.22
2023-03-22T10:24:19.720Z,163.21
2023-03-22T10:28:18.691Z,188.50
2023-03-22T10:32:18.681Z,200.26
2023-03-22T10:36:18.608Z,204.00
2023-03-22T10:40:19.334Z,121.58
2023-03-22T10:44:18.550Z,50.63
2023-03-22T10:48:19.506Z,63.07
2023-03-22T10:52:18.433Z,60.82
2023-03-22T10:56:18.381Z,52.86
2023-03-22T11:00:18.457Z,60.20
2023-03-22T11:04:18.409Z,29.88
2023-03-22T11:08:18.608Z,37.25
2023-03-22T11:12:18.803Z,78.02
2023-03-22T11:16:19.838Z,120.42
2023-03-22T11:20:18.758Z,66.36
2023-03-22T11:24:18.700Z,25.68
2023-03-22T11:28:18.923Z,124.74
2023-03-22T11:32:19.893Z,107.27
2023-03-22T11:36:18.700Z,118.40
2023-03-22T11:40:18.652Z,105.46
2023-03-22T11:44:18.553Z,54.76
2023-03-22T11:48:19.500Z,85.40
2023-03-22T11:52:18.515Z,69.50
2023-03-22T11:56:19.543Z,66.90
2023-03-22T12:00:18.923Z,89.73
2023-03-22T12:04:18.520Z,48.69
2023-03-22T12:08:18.446Z,86.19
2023-03-22T12:12:18.290Z,172.06
2023-03-22T12:16:18.534Z,25.00
2023-03-22T12:20:18.319Z,250.00
2023-03-22T12:24:18.366Z,250.00
2023-03-22T12:28:18.179Z,246.51
2023-03-22T12:32:18.125Z,247.99
2023-03-22T12:36:18.367Z,248.73
2023-03-22T12:40:18.279Z,250.09
2023-03-22T12:44:18.260Z,248.71
2023-03-22T12:48:18.342Z,249.36
2023-03-22T12:52:18.499Z,245.83
2023-03-22T12:56:18.894Z,249.97
2023-03-22T13:00:18.107Z,248.20
2023-03-22T13:04:18.279Z,248.76
2023-03-22T13:08:18.144Z,246.61
2023-03-22T13:12:18.821Z,245.87
2023-03-22T13:16:18.183Z,245.56
2023-03-22T13:20:18.216Z,248.55
2023-03-22T13:24:18.944Z,248.01
2023-03-22T13:28:18.436Z,244.89
2023-03-22T13:32:22.316Z,244.77
2023-03-22T13:36:18.930Z,245.19
2023-03-22T13:40:18.071Z,244.30
2023-03-22T13:44:17.910Z,244.13
2023-03-22T13:48:17.997Z,243.46
2023-03-22T13:52:18.030Z,242.20
2023-03-22T13:56:18.001Z,240.41
2023-03-22T14:00:20.269Z,241.27
2023-03-22T14:04:18.932Z,240.40
2023-03-22T14:08:17.881Z,238.91
2023-03-22T14:12:17.928Z,237.46
2023-03-22T14:16:17.991Z,238.19
2023-03-22T14:20:17.834Z,237.10
2023-03-22T14:49:20.153Z,25.00
2023-03-22T14:53:20.142Z,26.93
2023-03-22T14:57:28.314Z,27.70
2023-03-22T15:01:21.118Z,26.51
2023-03-22T15:05:20.024Z,28.29
2023-03-22T15:09:19.964Z,27.98
2023-03-22T15:13:19.958Z,27.54
2023-03-22T15:17:19.909Z,28.82
2023-03-22T15:21:19.912Z,29.81
2023-03-22T15:25:19.843Z,31.37
2023-03-22T15:29:19.827Z,29.00
2023-03-22T15:33:19.800Z,29.21
2023-03-22T15:37:24.777Z,26.21
2023-03-22T15:41:20.754Z,30.71
2023-03-22T15:45:19.760Z,57.90
2023-03-22T15:49:19.718Z,65.28
2023-03-22T15:53:20.364Z,70.04
2023-03-22T15:57:19.761Z,78.01
2023-03-22T16:01:19.639Z,74.01
2023-03-22T16:05:19.538Z,78.65
2023-03-22T16:09:19.532Z,68.02
2023-03-22T16:13:19.477Z,73.57
2023-03-22T16:17:19.485Z,75.09
2023-03-22T16:21:20.409Z,79.43
2023-03-22T16:25:19.475Z,80.49
2023-03-22T16:29:19.342Z,75.30
2023-03-22T16:33:19.315Z,80.01
2023-03-22T16:37:19.265Z,76.47
2023-03-22T16:41:19.242Z,74.12
2023-03-22T16:45:19.232Z,65.13
2023-03-22T16:49:19.290Z,66.02
2023-03-22T16:53:19.330Z,64.90
2023-03-22T16:57:19.337Z,60.93
2023-03-22T17:01:19.342Z,61.51
2023-03-22T17:05:19.588Z,60.00
2023-03-22T17:09:19.373Z,57.47
2023-03-22T17:13:19.346Z,57.14
2023-03-22T17:17:20.442Z,55.61
2023-03-22T17:21:19.348Z,55.82
2023-03-22T17:25:20.034Z,54.06
2023-03-22T17:29:19.336Z,54.05
2023-03-22T17:33:19.356Z,53.19
2023-03-22T17:37:19.294Z,52.73
2023-03-22T17:41:19.252Z,50.62
2023-03-22T17:45:19.417Z,50.20
2023-03-22T17:49:19.364Z,48.71
2023-03-22T17:53:46.709Z,49.20
2023-03-22T17:57:44.752Z,48.10
2023-03-22T18:01:20.318Z,51.09
2023-03-22T18:05:24.799Z,46.26
2023-03-22T18:09:20.143Z,48.11
2023-03-22T18:13:19.035Z,49.08
2023-03-22T18:17:19.100Z,44.21
2023-03-22T18:21:19.217Z,43.72
2023-03-22T18:25:18.948Z,43.91
2023-03-22T18:29:18.914Z,38.10
2023-03-22T18:33:19.466Z,47.28
2023-03-22T18:37:19.003Z,47.45
2023-03-22T18:45:21.081Z,41.93
2023-03-22T18:49:18.877Z,37.89
2023-03-22T18:53:18.903Z,49.56
2023-03-22T18:57:25.846Z,34.42
2023-03-22T19:01:19.791Z,31.39
2023-03-22T19:05:18.728Z,25.43
2023-03-22T19:09:18.917Z,29.50
2023-03-22T19:13:18.650Z,25.08
2023-03-22T19:17:18.586Z,25.12
2023-03-22T19:25:18.540Z,44.00
2023-03-22T19:29:18.593Z,39.39
2023-03-22T19:33:34.696Z,28.19
2023-03-22T19:37:19.563Z,25.15
2023-03-22T19:41:45.049Z,25.96
2023-03-22T19:45:19.516Z,29.88
2023-03-22T19:49:18.461Z,36.04
2023-03-22T19:53:54.222Z,40.50
2023-03-22T19:57:19.403Z,43.56
2023-03-22T20:01:18.351Z,31.55
2023-03-22T20:05:18.482Z,33.18
2023-03-22T20:09:18.314Z,31.28
2023-03-22T20:13:18.255Z,33.44
2023-03-22T20:17:25.863Z,29.56
2023-03-22T20:21:19.191Z,32.94
2023-03-22T20:25:18.109Z,31.46
2023-03-22T20:29:18.100Z,33.17
2023-03-22T20:33:18.108Z,38.74
2023-03-22T20:37:18.479Z,34.98
2023-03-22T20:41:18.258Z,35.95
2023-03-22T20:45:18.320Z,34.10
2023-03-22T20:49:18.392Z,40.46
2023-03-22T20:53:18.481Z,34.80
2023-03-22T20:57:19.528Z,32.55
2023-03-22T21:01:18.634Z,37.45
2023-03-22T21:05:18.746Z,38.78
2023-03-22T21:09:18.825Z,33.15
2023-03-22T21:13:18.902Z,35.94
2023-03-22T21:17:18.979Z,33.96
2023-03-22T21:21:18.986Z,34.11
2023-03-22T21:25:19.063Z,36.25
2023-03-22T21:29:19.154Z,41.19
2023-03-22T21:33:19.277Z,35.94
2023-03-22T21:37:19.362Z,39.78
2023-03-22T21:41:19.634Z,39.07
2023-03-22T21:45:19.572Z,33.95
2023-03-22T21:49:20.025Z,36.84
2023-03-22T21:53:19.706Z,34.22
2023-03-22T21:57:19.865Z,34.22
2023-03-22T22:01:19.987Z,35.62
2023-03-22T22:05:20.011Z,38.01
2023-03-22T22:09:20.148Z,34.93
2023-03-22T22:13:20.274Z,32.72
2023-03-22T22:17:20.297Z,32.19
2023-03-22T22:21:20.578Z,39.26
2023-03-22T22:25:20.485Z,38.55
2023-03-22T22:29:20.670Z,37.41
2023-03-22T22:33:20.706Z,37.43
2023-03-22T22:37:20.918Z,36.13
2023-03-22T22:41:20.997Z,37.31
2023-03-22T22:45:22.121Z,36.90
2023-03-22T22:49:21.142Z,34.13
2023-03-22T22:53:21.312Z,34.92
2023-03-22T22:57:21.489Z,35.53
2023-03-22T23:01:21.533Z,35.92
2023-03-22T23:05:21.656Z,35.36
2023-03-22T23:09:21.781Z,30.98
2023-03-22T23:13:21.910Z,31.14
2023-03-22T23:17:22.070Z,33.50
2023-03-22T23:21:22.145Z,34.18
2023-03-22T23:25:22.312Z,33.41
2023-03-22T23:29:22.426Z,35.59
2023-03-22T23:33:22.561Z,32.15
2023-03-22T23:37:22.741Z,37.59
2023-03-22T23:41:22.857Z,32.33
2023-03-22T23:45:22.992Z,27.99
2023-03-22T23:49:23.212Z,29.17
2023-03-22T23:53:23.284Z,28.01
2023-03-22T23:57:23.416Z,26.00
